Terminal Aerodrome Forecast
Issued by NWS Newport/Morehead City, NC

Home | Current Version | Previous Version | Text Only | Print | Product List | Glossary On
Versions: 1 2 3 4 5 6 7 8 9 10 11 12 13
000
FTUS42 KMHX 281721
TAFEWN
TAF
KEWN 281721Z 2818/2918 24009G18KT P6SM SCT050
     FM282100 20008KT P6SM VCTS BKN040CB
     FM290300 21006KT P6SM BKN060
     FM290800 24005KT P6SM SCT250=

USA.gov is the U.S. government's official web portal to all federal, state and local government web resources and services.